Time;durP1;ratioP1;P1;durP2;ratioP2;P2;SDS_P1;SDS_P2;PMS_P1;PMS_P2;Temp;Humidity;BMP_temperature;BMP_pressure;BME280_temperature;BME280_humidity;BME280_pressure;Samples;Min_cycle;Max_cycle;Signal;HPM_P1;HPM_P2
2022/05/30 00:00:42;;;;;;;2.00;1.10;;;8.40;99.90;;;;;;5092915;28;20051;-67
2022/05/30 00:03:08;;;;;;;6.45;1.30;;;8.70;99.90;;;;;;5093851;28;20052;-67
2022/05/30 00:05:34;;;;;;;;;;;8.70;99.90;;;;;;5092842;28;20083;-67
2022/05/30 00:08:00;;;;;;;4.75;1.48;;;8.60;99.90;;;;;;5093954;28;19963;-67
2022/05/30 00:10:27;;;;;;;4.45;1.25;;;8.60;99.90;;;;;;5093674;28;20044;-67
2022/05/30 00:12:54;;;;;;;4.88;1.20;;;8.80;99.90;;;;;;5093868;28;20044;-67
2022/05/30 00:15:20;;;;;;;7.20;1.50;;;9.00;99.90;;;;;;5092184;28;20537;-67
2022/05/30 00:17:47;;;;;;;22.10;3.63;;;8.50;99.90;;;;;;5093817;28;20052;-68
2022/05/30 00:20:13;;;;;;;5.78;1.50;;;9.70;99.90;;;;;;5093462;28;20040;-66
2022/05/30 00:22:39;;;;;;;7.85;1.88;;;8.60;99.90;;;;;;5092381;28;20039;-66
2022/05/30 00:25:05;;;;;;;5.68;1.63;;;8.60;99.90;;;;;;5093488;28;20399;-66
2022/05/30 00:27:31;;;;;;;7.80;2.08;;;8.90;99.90;;;;;;5093576;28;20048;-65
2022/05/30 00:29:56;;;;;;;7.82;1.77;;;9.10;99.90;;;;;;5075528;28;20068;-67
2022/05/30 00:32:22;;;;;;;8.68;1.50;;;8.70;99.90;;;;;;5093201;28;20131;-66
2022/05/30 00:34:48;;;;;;;8.18;1.70;;;9.20;99.90;;;;;;5093095;28;20095;-66
2022/05/30 00:37:13;;;;;;;5.80;1.35;;;10.10;99.90;;;;;;5093184;28;20063;-66
2022/05/30 00:39:39;;;;;;;5.78;1.67;;;8.50;99.90;;;;;;5093348;28;20047;-66
2022/05/30 00:42:17;;;;;;;6.78;1.70;;;8.60;99.90;;;;;;5092067;28;20509;-66
2022/05/30 00:44:44;;;;;;;3.67;1.33;;;8.50;99.90;;;;;;5093259;28;20088;-66
2022/05/30 00:47:10;;;;;;;4.20;1.60;;;8.50;99.90;;;;;;5093195;28;20126;-66
2022/05/30 00:49:38;;;;;;;6.32;1.52;;;8.10;99.90;;;;;;5093134;28;20127;-66
2022/05/30 00:52:07;;;;;;;2.90;1.50;;;8.30;99.90;;;;;;5093087;28;20052;-66
2022/05/30 00:54:42;;;;;;;7.30;1.85;;;8.30;99.90;;;;;;5092942;28;20123;-67
2022/05/30 00:57:20;;;;;;;3.80;1.40;;;8.10;99.90;;;;;;5092926;28;20052;-67
2022/05/30 00:59:56;;;;;;;5.32;1.73;;;8.30;99.90;;;;;;5092855;28;20066;-65
2022/05/30 01:02:29;;;;;;;2.22;1.60;;;7.90;99.90;;;;;;5092956;28;20044;-66
2022/05/30 01:07:41;;;;;;;3.28;1.40;;;7.90;99.90;;;;;;5092935;28;20109;-67
2022/05/30 01:10:09;;;;;;;5.63;1.70;;;8.20;99.90;;;;;;5092515;28;20449;-67
2022/05/30 01:12:41;;;;;;;5.45;1.80;;;8.10;99.90;;;;;;5074441;28;20428;-66
2022/05/30 01:15:11;;;;;;;2.78;1.70;;;8.10;99.90;;;;;;5092578;28;20043;-66
2022/05/30 01:17:48;;;;;;;8.48;2.00;;;8.10;99.90;;;;;;5092721;28;20044;-66
2022/05/30 01:20:40;;;;;;;;;;;8.40;99.90;;;;;;5092208;28;20056;-67
2022/05/30 01:23:29;;;;;;;8.68;2.35;;;8.00;99.90;;;;;;5089198;28;19955;-68
2022/05/30 01:26:17;;;;;;;8.50;1.85;;;8.10;99.90;;;;;;5092783;28;20363;-68
2022/05/30 01:29:01;;;;;;;3.40;1.88;;;8.20;99.90;;;;;;5092366;28;20070;-69
2022/05/30 01:31:28;;;;;;;3.63;1.98;;;8.20;99.90;;;;;;5091608;28;20126;-69
2022/05/30 01:33:53;;;;;;;3.60;2.08;;;7.90;99.90;;;;;;5092572;28;20050;-68
2022/05/30 01:36:25;;;;;;;6.13;2.22;;;8.20;99.90;;;;;;5092255;28;20052;-69
2022/05/30 01:38:51;;;;;;;5.82;2.45;;;8.20;99.90;;;;;;5092419;28;20125;-67
2022/05/30 01:41:17;;;;;;;10.45;2.10;;;8.30;99.90;;;;;;5092299;28;20484;-68
2022/05/30 01:43:44;;;;;;;8.70;2.08;;;8.30;99.90;;;;;;5091013;28;20058;-69
2022/05/30 01:46:13;;;;;;;7.07;2.65;;;8.30;99.90;;;;;;5092106;28;20395;-68
2022/05/30 01:48:39;;;;;;;5.47;1.90;;;8.40;99.90;;;;;;5092521;28;20083;-68
2022/05/30 01:51:05;;;;;;;4.90;2.22;;;8.60;99.90;;;;;;5092163;28;20102;-67
2022/05/30 01:53:31;;;;;;;12.73;2.55;;;8.30;99.90;;;;;;5092222;28;20400;-66
2022/05/30 01:55:57;;;;;;;11.65;2.25;;;8.20;99.90;;;;;;5092155;28;20893;-67
2022/05/30 01:58:23;;;;;;;5.97;2.17;;;8.50;99.90;;;;;;5092020;28;20056;-68
2022/05/30 02:00:50;;;;;;;6.25;2.20;;;8.40;99.90;;;;;;5092380;28;20040;-68
2022/05/30 02:03:16;;;;;;;6.82;2.22;;;8.00;99.90;;;;;;5090935;28;20438;-67
2022/05/30 02:05:42;;;;;;;8.75;2.00;;;8.30;99.90;;;;;;5092190;28;20089;-66
2022/05/30 02:08:08;;;;;;;9.07;2.67;;;8.50;99.90;;;;;;5092014;28;20090;-67
2022/05/30 02:10:35;;;;;;;6.80;2.42;;;8.50;99.90;;;;;;5091973;28;20135;-68
2022/05/30 02:13:02;;;;;;;4.50;2.22;;;8.30;99.90;;;;;;5092304;28;20044;-68
2022/05/30 02:15:28;;;;;;;9.20;2.67;;;8.20;99.90;;;;;;5092046;28;20491;-69
2022/05/30 02:17:54;;;;;;;9.52;2.70;;;8.50;99.90;;;;;;5092231;28;20051;-69
2022/05/30 02:20:20;;;;;;;8.60;2.92;;;8.50;99.90;;;;;;5092241;28;20067;-69
2022/05/30 02:22:46;;;;;;;6.68;3.10;;;8.40;99.90;;;;;;5092003;28;20408;-68
2022/05/30 02:25:12;;;;;;;12.35;3.40;;;8.50;99.90;;;;;;5095511;28;20043;-67
2022/05/30 02:27:41;;;;;;;8.13;3.35;;;8.60;99.90;;;;;;5096032;28;20044;-67
2022/05/30 02:30:09;;;;;;;6.80;2.58;;;8.50;99.90;;;;;;5095864;28;20529;-67
2022/05/30 02:32:34;;;;;;;6.75;2.70;;;8.20;99.90;;;;;;5095628;27;20227;-66
2022/05/30 02:37:44;;;;;;;16.48;2.83;;;8.40;99.90;;;;;;5095532;28;20138;-68
2022/05/30 02:40:10;;;;;;;9.30;3.00;;;8.30;99.90;;;;;;5095511;28;20136;-66
2022/05/30 02:42:36;;;;;;;9.80;3.35;;;8.50;99.90;;;;;;5094467;28;20048;-67
2022/05/30 02:45:02;;;;;;;10.90;3.05;;;8.60;99.90;;;;;;5095550;28;20036;-66
2022/05/30 02:47:28;;;;;;;6.75;3.50;;;8.80;99.90;;;;;;5095314;28;20044;-66
2022/05/30 02:49:54;;;;;;;9.50;2.65;;;8.60;99.90;;;;;;5095267;28;20131;-66
2022/05/30 02:52:20;;;;;;;6.35;2.83;;;9.60;99.90;;;;;;5095263;28;20052;-66
2022/05/30 02:54:45;;;;;;;6.18;3.30;;;8.40;99.90;;;;;;5095040;28;20043;-66
2022/05/30 02:57:11;;;;;;;8.48;3.00;;;8.20;99.90;;;;;;5095478;28;20048;-66
2022/05/30 02:59:37;;;;;;;4.15;2.80;;;8.50;99.90;;;;;;5095240;28;20043;-65
2022/05/30 03:02:03;;;;;;;6.45;3.17;;;9.40;99.90;;;;;;5094006;28;20091;-66
2022/05/30 03:04:29;;;;;;;6.25;2.72;;;8.50;99.90;;;;;;5095013;28;20039;-66
2022/05/30 03:06:54;;;;;;;8.02;2.63;;;9.40;99.90;;;;;;5095002;28;20048;-66
2022/05/30 03:09:20;;;;;;;5.30;3.00;;;8.70;99.90;;;;;;5094866;28;20087;-65
2022/05/30 03:11:46;;;;;;;9.60;3.30;;;8.40;99.90;;;;;;5095068;28;20079;-66
2022/05/30 03:14:12;;;;;;;8.43;3.00;;;8.40;99.90;;;;;;5095008;28;20040;-66
2022/05/30 03:16:38;;;;;;;;;;;8.40;99.90;;;;;;5095356;28;20070;-66
2022/05/30 03:19:04;;;;;;;7.03;3.35;;;8.30;99.90;;;;;;5094983;28;20003;-66
2022/05/30 03:21:29;;;;;;;6.25;3.20;;;8.50;99.90;;;;;;5094727;28;20138;-65
2022/05/30 03:23:55;;;;;;;9.88;3.15;;;8.20;99.90;;;;;;5094699;28;20044;-65
2022/05/30 03:26:21;;;;;;;7.47;3.65;;;8.30;99.90;;;;;;5094686;28;20556;-66
2022/05/30 03:28:46;;;;;;;19.55;3.92;;;8.50;99.90;;;;;;5094844;28;20396;-66
2022/05/30 03:31:12;;;;;;;11.43;3.80;;;8.20;99.90;;;;;;5094496;28;20134;-65
2022/05/30 03:33:39;;;;;;;8.77;4.20;;;7.90;99.90;;;;;;5094660;28;20154;-66
2022/05/30 03:36:25;;;;;;;6.85;3.42;;;8.00;99.90;;;;;;5092944;28;20056;-66
2022/05/30 03:38:50;;;;;;;8.90;3.72;;;8.30;99.90;;;;;;5094565;28;20435;-65
2022/05/30 03:41:16;;;;;;;9.35;3.78;;;8.10;99.90;;;;;;5076649;28;20067;-65
2022/05/30 03:43:42;;;;;;;11.90;4.38;;;8.50;99.90;;;;;;5094322;28;20090;-66
2022/05/30 03:46:07;;;;;;;12.57;4.72;;;8.30;99.90;;;;;;5092793;28;20036;-66
2022/05/30 03:48:33;;;;;;;12.63;4.38;;;8.50;99.90;;;;;;5094177;28;20051;-67
2022/05/30 03:50:59;;;;;;;11.27;4.07;;;8.10;99.90;;;;;;5094043;28;20048;-65
2022/05/30 03:53:25;;;;;;;8.18;3.58;;;8.20;99.90;;;;;;5093386;28;20048;-65
2022/05/30 03:55:50;;;;;;;7.45;3.70;;;8.40;99.90;;;;;;5094138;28;20464;-65
2022/05/30 03:58:17;;;;;;;8.73;4.03;;;8.30;99.90;;;;;;5094264;28;20345;-65
2022/05/30 04:00:43;;;;;;;;;;;8.10;99.90;;;;;;5094415;28;20044;-65
2022/05/30 04:03:09;;;;;;;5.25;3.60;;;8.10;99.90;;;;;;5093907;28;20417;-65
2022/05/30 04:05:35;;;;;;;10.75;4.00;;;8.30;99.90;;;;;;5092533;28;20044;-66
2022/05/30 04:08:00;;;;;;;10.35;3.25;;;9.60;99.90;;;;;;5094082;28;20047;-66
2022/05/30 04:10:26;;;;;;;10.13;3.17;;;8.30;99.90;;;;;;5092775;28;20040;-65
2022/05/30 04:12:59;;;;;;;7.05;3.40;;;;;;;;;;5092662;28;20047;-65
2022/05/30 04:15:25;;;;;;;9.48;3.38;;;8.20;99.90;;;;;;5093721;28;20043;-65
2022/05/30 04:17:51;;;;;;;8.80;3.28;;;8.60;99.90;;;;;;5093611;28;20438;-66
2022/05/30 04:20:17;;;;;;;10.90;3.30;;;8.50;99.90;;;;;;5093865;28;20102;-67
2022/05/30 04:22:44;;;;;;;6.15;3.38;;;8.30;99.90;;;;;;5093599;28;20052;-66
2022/05/30 04:25:10;;;;;;;4.75;2.88;;;8.80;99.90;;;;;;5092441;28;20056;-66
2022/05/30 04:27:36;;;;;;;6.53;3.08;;;8.70;99.90;;;;;;5092226;28;20479;-66
2022/05/30 04:30:04;;;;;;;7.32;2.70;;;8.30;99.90;;;;;;5093340;28;20083;-65
2022/05/30 04:32:30;;;;;;;4.10;2.75;;;8.40;99.90;;;;;;5093415;28;20055;-66
2022/05/30 04:34:55;;;;;;;8.55;2.75;;;8.40;99.90;;;;;;5093095;28;20044;-65
2022/05/30 04:37:21;;;;;;;8.55;3.13;;;8.50;99.90;;;;;;5093531;28;20143;-65
2022/05/30 04:39:47;;;;;;;8.90;2.53;;;8.30;99.90;;;;;;5093265;28;20116;-66
2022/05/30 04:42:12;;;;;;;5.75;2.70;;;8.60;99.90;;;;;;5093290;28;20044;-66
2022/05/30 04:44:38;;;;;;;5.57;2.55;;;8.70;99.90;;;;;;5093161;28;20063;-66
2022/05/30 04:47:05;;;;;;;6.70;2.80;;;8.60;99.90;;;;;;5092419;28;20052;-66
2022/05/30 04:49:30;;;;;;;4.18;2.70;;;8.40;99.90;;;;;;5093100;28;20501;-66
2022/05/30 04:51:56;;;;;;;9.27;3.20;;;8.60;99.90;;;;;;5092223;28;20051;-65
2022/05/30 04:54:24;;;;;;;8.77;3.15;;;8.90;99.90;;;;;;5093078;28;20535;-66
2022/05/30 04:56:52;;;;;;;6.15;3.35;;;8.40;99.90;;;;;;5093005;28;20052;-66
2022/05/30 04:59:18;;;;;;;7.22;2.65;;;8.90;99.90;;;;;;5092939;28;20048;-66
2022/05/30 05:01:44;;;;;;;6.25;2.83;;;8.80;99.90;;;;;;5092700;28;20545;-66
2022/05/30 05:04:11;;;;;;;5.03;2.90;;;8.80;99.90;;;;;;5093078;28;20051;-66
2022/05/30 05:06:37;;;;;;;6.07;2.70;;;8.90;99.90;;;;;;5091504;28;20334;-66
2022/05/30 05:09:12;;;;;;;8.10;2.70;;;9.10;99.90;;;;;;5092916;28;20074;-66
2022/05/30 05:11:38;;;;;;;5.90;2.45;;;9.20;99.90;;;;;;5092823;28;20052;-65
2022/05/30 05:14:03;;;;;;;4.95;2.40;;;8.90;99.90;;;;;;5091440;28;20123;-66
2022/05/30 05:16:31;;;;;;;5.35;2.60;;;9.30;99.90;;;;;;5092456;28;20047;-66
2022/05/30 05:18:57;;;;;;;6.45;2.80;;;9.50;99.90;;;;;;5092703;28;20109;-66
2022/05/30 05:21:27;;;;;;;6.28;2.90;;;9.40;99.90;;;;;;5092748;28;20060;-65
2022/05/30 05:23:53;;;;;;;5.68;2.42;;;10.20;99.90;;;;;;5092562;28;20127;-65
2022/05/30 05:26:19;;;;;;;13.52;2.90;;;9.00;99.90;;;;;;5092496;28;20425;-65
2022/05/30 05:28:46;;;;;;;6.70;2.92;;;9.20;99.90;;;;;;5088493;28;20060;-65
2022/05/30 05:31:23;;;;;;;5.95;2.40;;;9.00;99.90;;;;;;5092164;28;20510;-65
2022/05/30 05:33:49;;;;;;;10.73;2.55;;;8.90;99.90;;;;;;5091012;28;20047;-64
2022/05/30 05:36:20;;;;;;;6.75;2.50;;;9.00;99.90;;;;;;5092028;28;20109;-64
2022/05/30 05:38:46;;;;;;;5.60;2.58;;;9.10;99.90;;;;;;5092436;28;20051;-64
2022/05/30 05:41:11;;;;;;;9.90;3.58;;;9.30;99.90;;;;;;5091398;28;20549;-64
2022/05/30 05:43:37;;;;;;;4.43;2.53;;;9.20;99.90;;;;;;5092191;28;20048;-65
2022/05/30 05:46:03;;;;;;;4.95;2.50;;;9.40;99.90;;;;;;5092266;28;20048;-65
2022/05/30 05:48:29;;;;;;;8.00;2.70;;;9.30;99.90;;;;;;5092396;28;20048;-65
2022/05/30 05:50:54;;;;;;;4.65;2.75;;;9.30;99.90;;;;;;5092526;28;20492;-65
2022/05/30 05:53:20;;;;;;;5.93;2.28;;;9.20;99.90;;;;;;5092370;28;20103;-65
2022/05/30 05:55:46;;;;;;;9.60;2.38;;;9.10;99.90;;;;;;5091096;28;20059;-64
2022/05/30 05:58:11;;;;;;;6.32;2.65;;;9.30;99.90;;;;;;5093520;28;20035;-63
2022/05/30 06:00:37;;;;;;;6.70;2.55;;;9.90;99.90;;;;;;5096441;28;20127;-63
2022/05/30 06:03:03;;;;;;;4.53;2.17;;;9.40;99.90;;;;;;5096127;28;20044;-64
2022/05/30 06:05:30;;;;;;;9.85;2.20;;;9.50;99.90;;;;;;5096231;28;20046;-64
2022/05/30 06:07:59;;;;;;;4.65;2.42;;;9.70;99.90;;;;;;5093375;28;20066;-67
2022/05/30 06:10:25;;;;;;;5.75;3.28;;;9.20;99.90;;;;;;5078883;28;20528;-65
2022/05/30 06:12:51;;;;;;;;;;;9.50;99.90;;;;;;5094870;28;20051;-66
2022/05/30 06:15:19;;;;;;;5.10;1.92;;;9.70;99.90;;;;;;5094237;28;19920;-65
2022/05/30 06:17:46;;;;;;;3.83;2.00;;;9.70;99.90;;;;;;5094524;28;20051;-66
2022/05/30 06:20:15;;;;;;;8.57;2.50;;;9.80;99.90;;;;;;5092874;28;20083;-66
2022/05/30 06:22:40;;;;;;;4.13;2.00;;;11.40;99.90;;;;;;5090684;28;20052;-65
2022/05/30 06:25:07;;;;;;;9.13;2.33;;;10.00;99.90;;;;;;5093743;28;20541;-66
2022/05/30 06:27:32;;;;;;;;;;;9.90;99.90;;;;;;5094493;28;20123;-66
2022/05/30 06:29:58;;;;;;;2.83;2.05;;;9.80;99.90;;;;;;5092632;28;20014;-66
2022/05/30 06:32:24;;;;;;;4.07;2.15;;;10.00;99.90;;;;;;5093239;28;20048;-65
2022/05/30 06:34:51;;;;;;;6.05;2.25;;;10.10;99.90;;;;;;5093789;28;20151;-66
2022/05/30 06:37:16;;;;;;;11.63;3.80;;;10.60;99.90;;;;;;5093585;28;20511;-65
2022/05/30 06:39:42;;;;;;;5.30;1.40;;;10.80;99.90;;;;;;5093739;28;20078;-66
2022/05/30 06:42:10;;;;;;;3.88;1.20;;;12.30;99.90;;;;;;5092226;28;20050;-66
2022/05/30 06:44:36;;;;;;;3.97;1.55;;;11.20;99.90;;;;;;5094151;28;20118;-66
2022/05/30 06:47:07;;;;;;;4.95;1.63;;;11.00;99.90;;;;;;5094013;28;20502;-66
2022/05/30 06:49:33;;;;;;;3.55;1.10;;;11.60;99.90;;;;;;5092684;28;20462;-67
2022/05/30 06:51:59;;;;;;;2.63;1.00;;;11.70;99.90;;;;;;5086562;28;20143;-66
2022/05/30 06:54:25;;;;;;;3.50;1.10;;;11.90;99.90;;;;;;5094579;28;20457;-65
2022/05/30 07:05:34;;;;;;;3.20;1.20;;;11.70;99.90;;;;;;5109555;27;20429;-64
2022/05/30 07:08:00;;;;;;;2.42;1.13;;;11.50;99.90;;;;;;5109712;28;20052;-64
2022/05/30 07:10:28;;;;;;;5.47;1.50;;;11.70;99.90;;;;;;5108706;28;20056;-64
2022/05/30 07:12:54;;;;;;;4.43;1.35;;;12.60;99.90;;;;;;5109740;28;20127;-64
2022/05/30 07:15:20;;;;;;;2.40;1.48;;;11.30;99.90;;;;;;5109498;28;20126;-64
2022/05/30 07:17:45;;;;;;;5.90;1.52;;;11.00;99.90;;;;;;5090443;28;20082;-65
2022/05/30 07:20:11;;;;;;;4.80;1.60;;;10.80;99.90;;;;;;5082903;28;20054;-64
2022/05/30 07:22:37;;;;;;;5.85;1.50;;;11.10;99.90;;;;;;5085815;28;20114;-65
2022/05/30 07:25:03;;;;;;;5.38;1.67;;;10.90;99.90;;;;;;5087443;28;20044;-65
2022/05/30 07:27:29;;;;;;;7.75;1.50;;;10.70;99.90;;;;;;5087334;28;20045;-64
2022/05/30 07:29:55;;;;;;;3.63;1.30;;;10.90;99.90;;;;;;5086178;28;20064;-64
2022/05/30 07:32:20;;;;;;;4.38;1.23;;;11.30;99.90;;;;;;5084994;28;20040;-67
2022/05/30 07:34:46;;;;;;;8.40;1.55;;;11.90;99.90;;;;;;5087980;28;20040;-63
2022/05/30 07:37:12;;;;;;;5.38;1.77;;;11.20;99.90;;;;;;5086265;28;20408;-67
2022/05/30 07:39:38;;;;;;;4.15;1.23;;;11.30;99.90;;;;;;5087693;28;20060;-71
2022/05/30 07:42:05;;;;;;;5.05;1.50;;;11.50;99.90;;;;;;5101911;28;20048;-64
2022/05/30 07:44:31;;;;;;;6.10;2.42;;;11.70;99.90;;;;;;5087861;28;20389;-64
2022/05/30 07:46:57;;;;;;;6.18;1.70;;;12.00;99.90;;;;;;5085859;28;21054;-67
2022/05/30 07:49:23;;;;;;;5.78;1.80;;;12.00;99.90;;;;;;5084804;28;20051;-64
2022/05/30 07:51:49;;;;;;;4.63;1.52;;;12.20;99.90;;;;;;5088097;28;20492;-64
2022/05/30 07:54:15;;;;;;;3.90;1.50;;;12.70;99.90;;;;;;5088987;28;20059;-64
2022/05/30 07:56:41;;;;;;;4.60;1.13;;;12.80;99.90;;;;;;5087899;28;20051;-63
2022/05/30 07:59:07;;;;;;;2.40;1.20;;;13.10;99.90;;;;;;5087530;28;20127;-66
2022/05/30 08:01:33;;;;;;;4.43;1.20;;;12.90;99.90;;;;;;5088963;28;20161;-64
2022/05/30 08:03:59;;;;;;;4.07;1.40;;;12.80;99.90;;;;;;5088460;28;20059;-64
2022/05/30 08:06:27;;;;;;;3.63;1.40;;;12.80;99.90;;;;;;5088734;28;20056;-64
2022/05/30 08:08:53;;;;;;;4.47;1.30;;;12.20;99.90;;;;;;5088503;28;20052;-64
2022/05/30 08:11:20;;;;;;;2.53;1.40;;;12.60;99.90;;;;;;5088606;28;20439;-63
2022/05/30 08:13:45;;;;;;;5.88;1.60;;;11.90;99.90;;;;;;5088466;28;20131;-63
2022/05/30 08:16:20;;;;;;;3.03;1.38;;;13.10;99.90;;;;;;5079154;28;20557;-63
2022/05/30 08:18:45;;;;;;;4.40;1.30;;;12.50;99.90;;;;;;5075171;28;20052;-63
2022/05/30 08:21:11;;;;;;;4.22;1.40;;;13.00;99.90;;;;;;5072633;28;20154;-75
2022/05/30 08:23:37;;;;;;;3.53;1.60;;;13.40;99.90;;;;;;5064688;28;20048;-67
2022/05/30 08:26:03;;;;;;;5.22;1.63;;;13.30;99.90;;;;;;5072586;28;20465;-64
2022/05/30 08:28:29;;;;;;;2.80;1.20;;;13.30;99.90;;;;;;5071850;28;20123;-63
2022/05/30 08:30:55;;;;;;;2.28;1.10;;;12.90;99.90;;;;;;5072802;28;20316;-64
2022/05/30 08:33:22;;;;;;;6.45;1.23;;;12.30;99.90;;;;;;5073593;28;20110;-67
2022/05/30 08:35:58;;;;;;;4.78;1.33;;;12.00;99.90;;;;;;5073710;28;20048;-65
2022/05/30 08:38:24;;;;;;;2.33;0.98;;;12.30;99.90;;;;;;5053211;28;20041;-64
2022/05/30 08:43:39;;;;;;;0.98;0.85;;;11.50;99.90;;;;;;5054473;28;20119;-64
2022/05/30 08:46:23;;;;;;;1.85;1.00;;;11.40;99.90;;;;;;5054541;28;20145;-64
2022/05/30 08:48:57;;;;;;;3.72;0.95;;;12.30;99.90;;;;;;5054283;28;20052;-64
2022/05/30 08:52:00;;;;;;;2.90;1.23;;;11.30;99.90;;;;;;5054243;28;20057;-66
2022/05/30 08:54:29;;;;;;;3.60;1.20;;;11.60;99.90;;;;;;5054378;28;20489;-63
2022/05/30 08:56:58;;;;;;;2.35;1.15;;;11.60;99.90;;;;;;5054155;28;20041;-64
2022/05/30 08:59:42;;;;;;;0.90;0.82;;;12.60;99.90;;;;;;5054118;28;20053;-64
2022/05/30 09:02:28;;;;;;;4.60;0.80;;;11.20;99.90;;;;;;5054349;28;20053;-64
2022/05/30 09:05:01;;;;;;;5.40;1.20;;;11.80;99.90;;;;;;5053818;28;20068;-64
2022/05/30 09:07:31;;;;;;;5.22;1.10;;;11.60;99.90;;;;;;5054147;28;20100;-64
2022/05/30 09:10:29;;;;;;;1.52;0.90;;;11.60;99.90;;;;;;5053853;28;20041;-64
2022/05/30 09:13:06;;;;;;;2.03;0.98;;;11.50;99.90;;;;;;5053554;28;20099;-65
2022/05/30 09:16:16;;;;;;;1.30;0.95;;;11.40;99.90;;;;;;5054008;28;20033;-65
2022/05/30 09:18:46;;;;;;;1.02;0.80;;;13.70;99.90;;;;;;5053883;28;20441;-65
2022/05/30 09:21:14;;;;;;;1.58;1.35;;;11.50;99.90;;;;;;5076271;28;20054;-65
2022/05/30 09:23:40;;;;;;;1.58;1.02;;;12.20;99.90;;;;;;5073442;28;20080;-65
2022/05/30 09:26:11;;;;;;;1.80;0.80;;;11.80;99.90;;;;;;5073271;28;20068;-66
2022/05/30 09:28:41;;;;;;;3.13;0.80;;;12.30;99.90;;;;;;5072635;28;20055;-67
2022/05/30 09:31:23;;;;;;;2.63;0.80;;;12.40;99.90;;;;;;5073325;28;20545;-65
2022/05/30 09:33:55;;;;;;;1.73;0.73;;;12.40;99.90;;;;;;5073634;28;20392;-65
2022/05/30 09:36:28;;;;;;;1.88;0.85;;;12.50;99.90;;;;;;5072824;28;20048;-67
2022/05/30 09:39:05;;;;;;;3.17;0.90;;;12.50;99.90;;;;;;5073315;28;20109;-65
2022/05/30 09:41:55;;;;;;;5.88;1.00;;;12.60;99.90;;;;;;5073099;28;20105;-65
2022/05/30 09:44:31;;;;;;;5.00;2.25;;;12.70;99.90;;;;;;5069430;28;20572;-63
2022/05/30 09:47:18;;;;;;;2.63;1.10;;;12.40;99.90;;;;;;5073144;28;20127;-64
2022/05/30 09:49:50;;;;;;;3.92;1.20;;;12.60;99.90;;;;;;5072756;28;20488;-65
2022/05/30 09:52:33;;;;;;;3.00;1.17;;;12.30;99.90;;;;;;5072882;28;20054;-62
2022/05/30 09:55:01;;;;;;;3.80;1.20;;;12.50;99.90;;;;;;5073075;28;20047;-63
2022/05/30 09:57:41;;;;;;;2.72;0.90;;;12.30;99.90;;;;;;5070978;28;20048;-63
2022/05/30 10:00:32;;;;;;;3.78;0.82;;;12.20;99.90;;;;;;5072404;28;20044;-64
2022/05/30 10:03:11;;;;;;;2.47;1.00;;;12.10;99.90;;;;;;5072649;28;20102;-65
2022/05/30 10:05:39;;;;;;;5.78;1.25;;;12.60;99.90;;;;;;5072157;28;20052;-63
2022/05/30 10:08:19;;;;;;;3.97;1.10;;;12.20;99.90;;;;;;5072361;28;20389;-64
2022/05/30 10:10:51;;;;;;;4.18;1.20;;;11.90;99.90;;;;;;5071297;28;20472;-63
2022/05/30 10:13:39;;;;;;;5.28;1.23;;;12.00;99.90;;;;;;5057229;28;20167;-65
2022/05/30 10:16:12;;;;;;;3.00;1.45;;;11.60;99.90;;;;;;5064338;28;20052;-66
2022/05/30 10:18:41;;;;;;;2.10;0.93;;;11.60;99.90;;;;;;5069818;28;20123;-64
2022/05/30 10:28:14;;;;;;;5.15;1.30;;;12.90;99.90;;;;;;5073094;28;20053;-65
2022/05/30 10:28:15;;;;;;;2.83;1.00;;;12.30;99.90;;;;;;5076665;28;20059;-65
2022/05/30 10:30:54;;;;;;;2.67;1.60;;;12.40;99.90;;;;;;5092636;28;20077;-66
2022/05/30 10:33:43;;;;;;;6.28;1.58;;;12.20;99.90;;;;;;5092396;28;20143;-67
2022/05/30 10:36:11;;;;;;;2.97;1.02;;;12.30;99.90;;;;;;5089248;28;20153;-67
2022/05/30 10:39:01;;;;;;;2.55;1.08;;;12.60;99.90;;;;;;5092395;28;20553;-67
2022/05/30 10:41:35;;;;;;;1.55;0.95;;;12.70;99.90;;;;;;5092735;28;20048;-67
2022/05/30 10:44:06;;;;;;;3.13;1.10;;;12.70;99.90;;;;;;5091043;28;20043;-67
2022/05/30 10:46:44;;;;;;;3.60;1.00;;;12.90;99.90;;;;;;5091569;28;20051;-67
2022/05/30 10:49:14;;;;;;;3.83;1.27;;;13.20;99.90;;;;;;5091436;28;20048;-67
2022/05/30 10:51:56;;;;;;;3.10;0.90;;;13.60;99.90;;;;;;5092721;28;20044;-68
2022/05/30 10:54:48;;;;;;;1.85;0.75;;;13.70;99.90;;;;;;5092490;28;20048;-67
2022/05/30 10:58:03;;;;;;;4.35;0.88;;;14.60;99.90;;;;;;5092407;28;20510;-65
2022/05/30 11:00:40;;;;;;;4.47;0.70;;;13.40;99.90;;;;;;5087059;28;20056;-68
2022/05/30 11:03:32;;;;;;;3.08;0.90;;;14.50;99.90;;;;;;5092232;28;20087;-64
2022/05/30 11:06:32;;;;;;;2.35;0.73;;;14.00;99.90;;;;;;5091058;28;20063;-64
2022/05/30 11:09:26;;;;;;;1.52;0.90;;;13.80;99.90;;;;;;5092086;28;20059;-66
2022/05/30 11:12:35;;;;;;;1.83;0.60;;;13.50;99.90;;;;;;5092360;28;20130;-65
2022/05/30 11:15:18;;;;;;;2.70;1.10;;;14.20;99.90;;;;;;5069383;28;20045;-65
2022/05/30 11:17:54;;;;;;;1.88;0.80;;;14.10;99.90;;;;;;5069678;28;20049;-65
2022/05/30 11:20:37;;;;;;;1.05;0.70;;;14.20;99.90;;;;;;5085091;28;20392;-66
2022/05/30 11:23:06;;;;;;;2.22;0.70;;;14.10;99.90;;;;;;5092122;28;20048;-65
2022/05/30 11:26:09;;;;;;;1.35;0.80;;;13.70;99.90;;;;;;5091893;28;20044;-65
2022/05/30 11:28:51;;;;;;;3.95;1.20;;;14.00;99.90;;;;;;5091934;28;20051;-65
2022/05/30 11:31:47;;;;;;;1.05;0.73;;;13.50;99.90;;;;;;5090157;28;20040;-65
2022/05/30 11:34:55;;;;;;;2.50;1.10;;;13.40;99.90;;;;;;5091947;28;20036;-64
2022/05/30 11:37:45;;;;;;;3.95;1.02;;;13.70;99.90;;;;;;5072666;28;20064;-65
2022/05/30 11:40:36;;;;;;;1.65;0.95;;;13.90;99.90;;;;;;5091577;28;20048;-65
2022/05/30 11:43:25;;;;;;;1.55;0.70;;;13.70;99.90;;;;;;5088540;28;20045;-64
2022/05/30 11:46:31;;;;;;;1.98;1.00;;;14.00;99.90;;;;;;5064735;28;20132;-64
2022/05/30 11:49:23;;;;;;;1.33;0.80;;;14.00;99.90;;;;;;5065315;28;20094;-66
2022/05/30 11:52:12;;;;;;;10.52;1.42;;;14.00;99.90;;;;;;5070031;28;20112;-64
2022/05/30 11:55:04;;;;;;;4.20;1.10;;;13.80;99.90;;;;;;5073510;28;20048;-63
2022/05/30 11:57:45;;;;;;;2.72;1.00;;;14.10;99.90;;;;;;5087752;28;20048;-69
2022/05/30 12:00:33;;;;;;;3.47;1.00;;;14.30;99.90;;;;;;5092486;28;20070;-66
2022/05/30 12:03:19;;;;;;;2.83;0.80;;;14.40;99.90;;;;;;5093315;28;20135;-68
2022/05/30 12:06:10;;;;;;;1.05;0.80;;;14.60;99.90;;;;;;5095266;28;20060;-66
2022/05/30 12:08:51;;;;;;;2.58;1.20;;;14.10;99.90;;;;;;5095372;28;20081;-65
2022/05/30 12:11:38;;;;;;;2.08;1.00;;;15.10;99.90;;;;;;5095393;28;20108;-66
2022/05/30 12:14:43;;;;;;;4.47;1.00;;;15.40;99.90;;;;;;5076505;28;21051;-65
2022/05/30 12:23:48;;;;;;;2.17;0.77;;;15.40;99.90;;;;;;5068523;28;20068;-66
2022/05/30 12:23:49;;;;;;;7.25;0.88;;;15.20;99.90;;;;;;5069129;28;20059;-66
2022/05/30 12:26:15;;;;;;;2.05;0.90;;;15.80;99.90;;;;;;5070696;28;20563;-66
2022/05/30 12:28:40;;;;;;;;;;;15.00;99.90;;;;;;5074937;28;20042;-66
2022/05/30 12:31:07;;;;;;;1.85;0.63;;;14.50;99.90;;;;;;5074578;28;19921;-67
2022/05/30 12:33:33;;;;;;;2.47;0.80;;;14.50;99.90;;;;;;5074696;28;20052;-68
2022/05/30 12:36:08;;;;;;;2.20;0.80;;;14.70;99.90;;;;;;5073340;28;20045;-64
2022/05/30 12:38:55;;;;;;;2.22;0.90;;;14.90;99.90;;;;;;5074634;28;20117;-66
2022/05/30 12:41:55;;;;;;;2.97;1.00;;;15.20;99.90;;;;;;5074002;28;20079;-66
2022/05/30 12:44:45;;;;;;;2.08;0.70;;;15.20;99.90;;;;;;5074416;28;20484;-66
2022/05/30 12:47:18;;;;;;;3.30;0.90;;;15.60;99.90;;;;;;5074194;28;20135;-67
2022/05/30 12:49:49;;;;;;;1.65;0.85;;;15.70;99.90;;;;;;5074853;28;20051;-65
2022/05/30 12:52:20;;;;;;;3.72;0.82;;;15.70;99.90;;;;;;5074438;28;20087;-65
2022/05/30 12:55:01;;;;;;;1.65;0.80;;;16.10;99.90;;;;;;5074206;28;20052;-67
2022/05/30 12:57:43;;;;;;;1.50;0.60;;;16.10;99.90;;;;;;5074307;28;20048;-66
2022/05/30 13:00:19;;;;;;;2.80;0.80;;;15.90;99.90;;;;;;5074284;28;20084;-65
2022/05/30 13:02:55;;;;;;;3.00;0.90;;;15.60;99.90;;;;;;5073916;28;20163;-66
2022/05/30 13:05:42;;;;;;;5.03;0.90;;;16.00;99.90;;;;;;5073929;28;20061;-66
2022/05/30 13:08:46;;;;;;;3.33;0.80;;;16.60;99.90;;;;;;5074009;28;20053;-65
2022/05/30 13:11:25;;;;;;;1.23;0.68;;;18.10;99.90;;;;;;5072680;28;20087;-67
2022/05/30 13:13:55;;;;;;;1.90;0.63;;;16.00;99.90;;;;;;5073899;28;20489;-66
2022/05/30 13:16:33;;;;;;;1.05;0.55;;;15.90;99.90;;;;;;5073794;28;20049;-68
2022/05/30 13:18:58;;;;;;;2.00;0.65;;;15.80;99.90;;;;;;5073946;28;20048;-66
2022/05/30 13:21:27;;;;;;;;;;;16.10;99.90;;;;;;5073016;28;20508;-66
2022/05/30 13:23:53;;;;;;;4.10;0.68;;;16.30;99.90;;;;;;5073602;28;19973;-66
2022/05/30 13:26:18;;;;;;;;;;;16.30;99.90;;;;;;5074025;28;20123;-66
2022/05/30 13:28:45;;;;;;;2.00;1.00;;;16.00;99.90;;;;;;5073673;28;20444;-66
2022/05/30 13:31:13;;;;;;;2.90;0.70;;;16.10;99.90;;;;;;5073763;28;20063;-66
2022/05/30 13:33:51;;;;;;;3.03;0.77;;;16.00;99.90;;;;;;5055960;28;20391;-66
2022/05/30 13:36:29;;;;;;;5.65;1.40;;;15.80;99.90;;;;;;5073520;28;20055;-67
2022/05/30 13:38:56;;;;;;;3.70;0.90;;;16.00;99.90;;;;;;5073233;28;20102;-66
2022/05/30 13:41:47;;;;;;;2.33;0.80;;;15.70;99.90;;;;;;5073115;28;20056;-69